Hauptseite
METAR-TAF:

METAR-TAF

Flughäfen :

London Oxford Airport

Oxford, England

Breite: 51-50-13N, Länge: 1-19-12W, Höhe: 82 m

Beobachtung

Neuester Wetterbericht von vor 13 Minuten, um 13:20 UTC
Wind 4 kt aus Südwest, variierte zwischen Süd/Südost und West/Nordwest
Temperatur 22°C
Luftfeuchtigkeit 35%
Luftdruck 1015 hPa
Sichtweite 10 km oder mehr
keine Wolken unter 1500 m und keine Kumulonimbus oder Gewitterwolken

METAR: EGTK 231320Z 22004KT 160V290 CAVOK 22/06 Q1015

Zeit: 14:33 (13:33 UTC)

Prognose

Neuester Wetterbericht von vor 2 Stunden und 37 Minuten, um 10:56 UTC
Gültige Prognose vom 23 um 12 UTC bis 23 um 21 UTC
Wind 8 kt aus Südwest
Sichtweite 10 km oder mehr
keine Wolken unter 1500 m und keine Kumulonimbus oder Gewitterwolken

TAF: EGTK 231056Z 2312/2321 23008KT CAVOK

Wetterbeobachtungen und Prognosen von mehr als 4000 Flughäfen (METAR und TAF Bericht).

Die verfügbaren Stationen werden durch gelbe und rote Markierungen auf der Karte dargestellt.

Führen Sie die Maus auf sie, um den Namen der Station zu sehen.

Darauf klicken, um die Beobachtung von Wetterbeobachtungen und Prognosen zu sehen.

Um die Karte zu ändern : klicken Sie auf den grünen Tasten mit einem schwarzen Kreuz Zum Vergrößern, auf den grünen Button mit einem Gedankenstrich zu verkleinern, oder auf die grünen Pfeile für benachbarte Karten.


METAR-TAF: